Time;durP1;ratioP1;P1;durP2;ratioP2;P2;SDS_P1;SDS_P2;PMS_P1;PMS_P2;Temp;Humidity;BMP_temperature;BMP_pressure;BME280_temperature;BME280_humidity;BME280_pressure;Samples;Min_cycle;Max_cycle;Signal;HPM_P1;HPM_P2
2022/10/30 00:00:39;;;;;;;36.40;17.67;;;14.40;99.90;;;;;;4967677;28;20034;-81
2022/10/30 00:03:05;;;;;;;41.70;17.08;;;14.40;99.90;;;;;;4967922;28;20033;-83
2022/10/30 00:05:31;;;;;;;30.77;15.90;;;14.30;99.90;;;;;;4967376;28;20110;-82
2022/10/30 00:07:57;;;;;;;27.77;14.05;;;14.30;99.90;;;;;;4967616;28;20022;-82
2022/10/30 00:10:23;;;;;;;29.15;15.07;;;14.30;99.90;;;;;;4984087;28;20031;-84
2022/10/30 00:12:49;;;;;;;30.02;15.55;;;14.30;99.90;;;;;;4967264;28;20053;-85
2022/10/30 00:15:15;;;;;;;32.63;15.77;;;14.20;99.90;;;;;;4967977;28;20062;-84
2022/10/30 00:17:40;;;;;;;32.35;15.43;;;14.20;99.90;;;;;;4967191;28;20179;-85
2022/10/30 00:20:07;;;;;;;27.48;13.77;;;14.20;99.90;;;;;;4967662;28;20027;-85
2022/10/30 00:22:35;;;;;;;26.25;14.45;;;14.10;99.90;;;;;;4967358;28;20031;-85
2022/10/30 00:25:01;;;;;;;31.52;14.80;;;14.10;99.90;;;;;;4967025;28;20077;-85
2022/10/30 00:27:27;;;;;;;29.92;14.00;;;14.00;99.90;;;;;;4967276;28;20030;-85
2022/10/30 00:29:52;;;;;;;26.65;12.77;;;14.00;99.90;;;;;;4967872;28;20034;-86
2022/10/30 00:32:18;;;;;;;28.10;13.40;;;13.90;99.90;;;;;;4966854;28;20058;-85
2022/10/30 00:34:44;;;;;;;27.17;12.82;;;13.90;99.90;;;;;;4966767;28;20031;-84
2022/10/30 00:37:09;;;;;;;25.23;13.13;;;13.90;99.90;;;;;;4984594;28;20029;-84
2022/10/30 00:39:38;;;;;;;28.90;13.63;;;13.90;99.90;;;;;;4966881;28;20483;-84
2022/10/30 00:42:03;;;;;;;26.55;13.75;;;13.90;99.90;;;;;;4966904;28;20094;-85
2022/10/30 00:44:37;;;;;;;33.05;12.88;;;13.90;99.90;;;;;;4983679;28;20038;-86
2022/10/30 00:47:10;;;;;;;28.07;13.10;;;13.90;99.90;;;;;;4967143;28;20031;-85
2022/10/30 00:49:42;;;;;;;30.38;13.10;;;13.80;99.90;;;;;;4983262;28;20031;-85
2022/10/30 00:52:09;;;;;;;34.38;13.05;;;13.80;99.90;;;;;;4966537;28;20399;-86
2022/10/30 00:54:36;;;;;;;29.30;13.20;;;13.80;99.90;;;;;;4966831;28;20027;-86
2022/10/30 00:57:05;;;;;;;34.78;12.55;;;13.70;99.90;;;;;;4984418;28;20050;-86
2022/10/30 00:59:33;;;;;;;31.20;13.45;;;13.70;99.90;;;;;;4967106;28;20530;-85
2022/10/30 01:02:01;;;;;;;31.02;13.02;;;13.70;99.90;;;;;;4966401;28;20023;-84
2022/10/30 01:04:27;;;;;;;22.83;12.68;;;13.60;99.90;;;;;;4967830;28;20027;-86
2022/10/30 01:06:53;;;;;;;29.73;12.93;;;13.60;99.90;;;;;;4967194;28;20055;-85
2022/10/30 01:09:20;;;;;;;25.30;12.68;;;13.60;99.90;;;;;;4967154;28;20026;-86
2022/10/30 01:11:45;;;;;;;38.45;12.63;;;13.50;99.90;;;;;;4966655;28;20043;-86
2022/10/30 01:14:14;;;;;;;26.70;13.05;;;13.50;99.90;;;;;;4966902;28;20053;-86
2022/10/30 01:17:07;;;;;;;22.33;12.52;;;13.50;99.90;;;;;;4967116;28;20030;-86
2022/10/30 01:19:58;;;;;;;31.13;12.05;;;13.50;99.90;;;;;;4967375;28;20031;-85
2022/10/30 01:22:29;;;;;;;29.00;12.05;;;13.50;99.90;;;;;;4966590;28;20033;-86
2022/10/30 01:25:13;;;;;;;25.42;12.23;;;13.50;99.90;;;;;;4967112;28;20034;-86
2022/10/30 01:27:57;;;;;;;25.20;12.20;;;13.40;99.90;;;;;;4967089;28;20066;-86
2022/10/30 01:30:22;;;;;;;30.67;11.87;;;13.40;99.90;;;;;;4969682;28;20037;-86
2022/10/30 01:33:13;;;;;;;30.80;13.57;;;13.40;99.90;;;;;;4970893;28;20070;-87
2022/10/30 01:35:57;;;;;;;22.52;12.63;;;13.40;99.90;;;;;;4969811;28;20035;-87
2022/10/30 01:38:38;;;;;;;28.42;12.88;;;13.40;99.90;;;;;;4969518;28;20050;-85
2022/10/30 01:41:04;;;;;;;23.55;13.00;;;13.40;99.90;;;;;;4970207;28;20034;-86
2022/10/30 01:43:31;;;;;;;27.42;12.38;;;13.40;99.90;;;;;;4970167;28;20455;-85
2022/10/30 01:46:09;;;;;;;24.30;12.70;;;13.40;99.90;;;;;;4970513;28;20031;-87
2022/10/30 01:48:50;;;;;;;33.58;13.43;;;13.40;99.90;;;;;;4970152;28;20031;-85
2022/10/30 01:51:24;;;;;;;32.45;13.93;;;13.40;99.90;;;;;;4969947;28;20082;-86
2022/10/30 01:54:15;;;;;;;37.92;14.38;;;13.40;99.90;;;;;;4970373;28;20066;-85
2022/10/30 01:57:07;;;;;;;30.05;15.07;;;13.50;99.90;;;;;;4970573;28;20045;-86
2022/10/30 01:59:51;;;;;;;36.83;15.30;;;13.50;99.90;;;;;;4965852;28;20038;-84
2022/10/30 02:02:17;;;;;;;33.45;14.95;;;13.60;99.90;;;;;;4969534;28;20033;-85
2022/10/30 02:04:43;;;;;;;30.63;14.95;;;13.60;99.90;;;;;;4969582;28;20027;-82
2022/10/30 02:07:10;;;;;;;24.10;13.75;;;13.60;99.90;;;;;;4969029;28;20114;-85
2022/10/30 02:09:36;;;;;;;33.15;15.18;;;13.60;99.90;;;;;;4969926;28;20034;-83
2022/10/30 02:12:02;;;;;;;36.85;13.75;;;13.60;99.90;;;;;;4969152;28;20526;-84
2022/10/30 02:14:34;;;;;;;29.13;14.60;;;13.60;99.90;;;;;;4969352;28;20027;-82
2022/10/30 02:17:01;;;;;;;26.40;14.82;;;13.60;99.90;;;;;;4969022;28;20034;-83
2022/10/30 02:19:27;;;;;;;30.70;13.60;;;13.60;99.90;;;;;;4970043;28;20027;-85
2022/10/30 02:21:53;;;;;;;29.27;14.15;;;13.50;99.90;;;;;;4969960;28;20033;-85
2022/10/30 02:24:19;;;;;;;31.85;13.80;;;13.60;99.90;;;;;;4968838;28;20041;-85
2022/10/30 02:26:45;;;;;;;38.03;15.63;;;13.60;99.90;;;;;;4969580;28;20037;-84
2022/10/30 02:29:11;;;;;;;26.13;12.70;;;13.50;99.90;;;;;;4968998;28;20050;-86
2022/10/30 02:31:36;;;;;;;29.63;13.85;;;13.60;99.90;;;;;;4968712;28;20035;-86
2022/10/30 02:34:02;;;;;;;32.92;14.93;;;13.60;99.90;;;;;;4969664;28;20034;-86
2022/10/30 02:36:28;;;;;;;33.33;14.32;;;13.60;99.90;;;;;;4969142;28;20234;-86
2022/10/30 02:38:54;;;;;;;29.17;15.18;;;13.60;99.90;;;;;;4969315;28;20051;-85
2022/10/30 02:41:21;;;;;;;35.22;16.15;;;13.60;99.90;;;;;;4968694;28;20038;-84
2022/10/30 02:43:46;;;;;;;30.40;15.27;;;13.60;99.90;;;;;;4986278;28;20033;-83
2022/10/30 02:46:12;;;;;;;38.88;15.70;;;13.60;99.90;;;;;;4985412;28;20039;-85
2022/10/30 02:48:37;;;;;;;32.13;14.85;;;13.60;99.90;;;;;;4969201;28;20027;-85
2022/10/30 02:51:04;;;;;;;32.55;15.30;;;13.60;99.90;;;;;;4968526;28;20097;-84
2022/10/30 02:53:30;;;;;;;36.25;15.63;;;13.60;99.90;;;;;;4968976;28;20102;-84
2022/10/30 02:56:02;;;;;;;31.10;14.90;;;13.60;99.90;;;;;;4969146;28;20057;-83
2022/10/30 02:58:28;;;;;;;26.55;13.85;;;13.60;99.90;;;;;;4968396;28;20041;-84
2022/10/30 03:00:54;;;;;;;31.90;13.15;;;13.60;99.90;;;;;;4968855;28;20030;-83
2022/10/30 03:03:19;;;;;;;34.00;14.10;;;13.60;99.90;;;;;;4968743;28;20027;-83
2022/10/30 03:05:45;;;;;;;35.85;13.88;;;13.60;99.90;;;;;;4967764;28;20038;-82
2022/10/30 03:08:11;;;;;;;33.88;14.48;;;13.60;99.90;;;;;;4968283;28;20471;-82
2022/10/30 03:10:36;;;;;;;27.55;13.98;;;13.60;99.90;;;;;;4967764;28;20031;-78
2022/10/30 03:13:02;;;;;;;37.45;14.65;;;13.60;99.90;;;;;;4985603;28;20054;-83
2022/10/30 03:15:28;;;;;;;29.48;14.15;;;13.60;99.90;;;;;;4968413;28;20030;-83
2022/10/30 03:17:54;;;;;;;35.80;14.13;;;13.60;99.90;;;;;;4985223;28;20027;-83
2022/10/30 03:20:19;;;;;;;37.20;14.60;;;13.60;99.90;;;;;;4986452;28;20023;-83
2022/10/30 03:22:45;;;;;;;29.75;14.05;;;13.60;99.90;;;;;;4968272;28;20061;-82
2022/10/30 03:25:11;;;;;;;26.17;13.85;;;13.60;99.90;;;;;;4985468;28;20026;-83
2022/10/30 03:27:36;;;;;;;30.35;14.02;;;13.60;99.90;;;;;;4968178;28;20126;-83
2022/10/30 03:30:02;;;;;;;30.88;13.77;;;13.60;99.90;;;;;;4967548;28;20156;-82
2022/10/30 03:32:28;;;;;;;30.30;13.93;;;13.50;99.90;;;;;;4966636;28;20035;-84
2022/10/30 03:34:53;;;;;;;38.58;14.30;;;13.50;99.90;;;;;;4968203;28;20034;-82
2022/10/30 03:37:19;;;;;;;33.20;13.57;;;13.50;99.90;;;;;;4967589;28;20637;-84
2022/10/30 03:39:45;;;;;;;27.23;13.75;;;13.60;99.90;;;;;;4967466;28;20122;-83
2022/10/30 03:42:10;;;;;;;36.22;14.05;;;13.60;99.90;;;;;;4967366;28;20449;-83
2022/10/30 03:44:36;;;;;;;30.50;13.88;;;13.60;99.90;;;;;;4968052;28;20027;-84
2022/10/30 03:47:01;;;;;;;30.17;13.02;;;13.50;99.90;;;;;;4967933;28;20037;-83
2022/10/30 03:49:27;;;;;;;24.27;12.68;;;13.60;99.90;;;;;;4968610;28;20066;-84
2022/10/30 03:51:52;;;;;;;32.47;13.55;;;13.50;99.90;;;;;;4968742;28;20042;-84
2022/10/30 03:54:18;;;;;;;28.45;12.43;;;13.50;99.90;;;;;;4967423;28;20034;-85
2022/10/30 03:56:44;;;;;;;30.77;13.05;;;13.50;99.90;;;;;;4967695;28;20031;-83
2022/10/30 03:59:10;;;;;;;22.80;12.23;;;13.50;99.90;;;;;;4967860;28;20026;-84
2022/10/30 04:01:37;;;;;;;25.45;12.43;;;13.50;99.90;;;;;;4967829;28;20167;-83
2022/10/30 04:04:02;;;;;;;32.58;13.32;;;13.50;99.90;;;;;;4968067;28;20098;-83
2022/10/30 04:06:28;;;;;;;34.50;12.95;;;13.50;99.90;;;;;;4984413;28;20034;-83
2022/10/30 04:08:54;;;;;;;31.52;13.15;;;13.50;99.90;;;;;;4985460;28;20034;-82
2022/10/30 04:11:20;;;;;;;32.40;13.02;;;13.50;99.90;;;;;;4985078;28;20102;-81
2022/10/30 04:13:45;;;;;;;24.35;11.85;;;13.40;99.90;;;;;;4967550;28;20061;-83
2022/10/30 04:16:11;;;;;;;30.73;12.50;;;13.50;99.90;;;;;;4983689;28;20042;-82
2022/10/30 04:18:37;;;;;;;37.33;12.40;;;13.50;99.90;;;;;;4967253;28;20027;-84
2022/10/30 04:21:02;;;;;;;25.75;12.50;;;13.40;99.90;;;;;;4967123;28;20114;-82
2022/10/30 04:23:29;;;;;;;45.92;13.38;;;13.50;99.90;;;;;;4967439;28;20047;-83
2022/10/30 04:25:54;;;;;;;26.23;11.75;;;13.40;99.90;;;;;;4967130;28;20027;-84
2022/10/30 04:28:20;;;;;;;24.75;12.55;;;13.40;99.90;;;;;;4985268;28;20130;-84
2022/10/30 04:30:46;;;;;;;28.27;12.63;;;13.40;99.90;;;;;;4983440;28;20503;-85
2022/10/30 04:33:13;;;;;;;27.23;12.75;;;13.30;99.90;;;;;;4967271;28;20094;-83
2022/10/30 04:35:39;;;;;;;22.52;11.98;;;13.30;99.90;;;;;;4967612;28;20026;-84
2022/10/30 04:38:09;;;;;;;34.70;12.05;;;13.30;99.90;;;;;;4967428;28;20047;-84
2022/10/30 04:40:37;;;;;;;26.45;12.02;;;13.30;99.90;;;;;;4967463;28;20043;-84
2022/10/30 04:43:04;;;;;;;26.40;11.65;;;13.30;99.90;;;;;;4967307;28;20050;-84
2022/10/30 04:45:30;;;;;;;29.00;11.52;;;13.20;99.90;;;;;;4967573;28;20052;-85
2022/10/30 04:48:11;;;;;;;24.92;10.77;;;13.20;99.90;;;;;;4967460;28;20038;-85
2022/10/30 04:50:37;;;;;;;23.88;11.57;;;13.20;99.90;;;;;;4967482;28;20050;-84
2022/10/30 04:53:06;;;;;;;25.55;12.27;;;13.20;99.90;;;;;;4966664;28;20034;-84
2022/10/30 04:55:32;;;;;;;30.15;11.90;;;13.20;99.90;;;;;;4966623;28;20031;-84
2022/10/30 04:57:59;;;;;;;33.55;12.57;;;13.20;99.90;;;;;;4967062;28;20027;-84
2022/10/30 05:00:25;;;;;;;31.88;12.38;;;13.10;99.90;;;;;;4966888;28;20023;-84
2022/10/30 05:02:51;;;;;;;23.02;12.27;;;13.10;99.90;;;;;;4967475;28;20031;-85
2022/10/30 05:05:17;;;;;;;29.60;13.07;;;13.10;99.90;;;;;;4970226;28;20034;-85
2022/10/30 05:07:43;;;;;;;33.17;12.52;;;13.10;99.90;;;;;;4971213;28;20030;-85
2022/10/30 05:10:13;;;;;;;25.90;11.98;;;13.10;99.90;;;;;;4970590;28;20086;-85
2022/10/30 05:12:42;;;;;;;26.40;11.60;;;13.10;99.90;;;;;;4970045;28;20447;-85
2022/10/30 05:15:08;;;;;;;23.85;11.70;;;13.00;99.90;;;;;;4970421;28;20031;-85
2022/10/30 05:17:33;;;;;;;30.20;11.98;;;13.00;99.90;;;;;;4970873;28;20030;-85
2022/10/30 05:19:59;;;;;;;29.25;11.63;;;13.00;99.90;;;;;;4971466;28;20027;-86
2022/10/30 05:22:25;;;;;;;25.58;11.65;;;13.00;99.90;;;;;;4971047;28;20383;-85
2022/10/30 05:24:50;;;;;;;29.85;11.15;;;13.00;99.90;;;;;;4971731;28;20450;-86
2022/10/30 05:27:16;;;;;;;28.67;12.05;;;12.90;99.90;;;;;;4970470;28;20081;-85
2022/10/30 05:29:41;;;;;;;26.38;11.98;;;12.90;99.90;;;;;;4970668;28;20045;-84
2022/10/30 05:32:07;;;;;;;38.05;11.57;;;12.90;99.90;;;;;;4969982;28;20043;-84
2022/10/30 05:34:33;;;;;;;35.08;11.45;;;12.90;99.90;;;;;;4970479;28;20103;-84
2022/10/30 05:37:00;;;;;;;26.52;11.95;;;12.90;99.90;;;;;;4970166;28;20029;-85
2022/10/30 05:39:26;;;;;;;28.52;12.63;;;12.90;99.90;;;;;;4969775;28;20046;-84
2022/10/30 05:41:51;;;;;;;30.85;11.32;;;12.90;99.90;;;;;;4970908;28;20091;-83
2022/10/30 05:44:17;;;;;;;36.22;14.57;;;12.90;99.90;;;;;;4969976;28;20038;-83
2022/10/30 05:46:43;;;;;;;25.05;12.07;;;13.00;99.90;;;;;;4970311;28;20050;-83
2022/10/30 05:49:09;;;;;;;24.90;11.55;;;13.00;99.90;;;;;;4969921;28;20030;-83
2022/10/30 05:51:34;;;;;;;28.73;12.35;;;13.00;99.90;;;;;;4969526;28;20109;-85
2022/10/30 05:54:00;;;;;;;23.05;10.82;;;13.00;99.90;;;;;;4969466;28;20030;-85
2022/10/30 05:56:25;;;;;;;25.55;13.30;;;13.00;99.90;;;;;;4969916;28;20034;-85
2022/10/30 05:58:51;;;;;;;31.35;12.77;;;13.00;99.90;;;;;;4970406;28;20038;-86
2022/10/30 06:01:17;;;;;;;19.08;11.25;;;13.00;99.90;;;;;;4970307;28;20023;-85
2022/10/30 06:03:43;;;;;;;25.52;12.73;;;13.00;99.90;;;;;;4970173;28;20034;-85
2022/10/30 06:06:08;;;;;;;26.88;11.73;;;13.00;99.90;;;;;;4969300;28;20109;-85
2022/10/30 06:08:34;;;;;;;22.52;11.60;;;12.90;99.90;;;;;;4986341;28;20027;-84
2022/10/30 06:11:00;;;;;;;28.17;12.75;;;12.90;99.90;;;;;;4969541;28;20029;-85
2022/10/30 06:13:26;;;;;;;25.88;12.95;;;12.90;99.90;;;;;;4969286;28;20039;-84
2022/10/30 06:15:54;;;;;;;29.00;12.88;;;12.90;99.90;;;;;;4968261;28;20031;-84
2022/10/30 06:18:20;;;;;;;30.85;11.65;;;12.80;99.90;;;;;;4969454;28;20033;-82
2022/10/30 06:20:46;;;;;;;28.10;12.90;;;12.90;99.90;;;;;;4969239;28;20026;-83
2022/10/30 06:23:12;;;;;;;25.27;13.45;;;12.90;99.90;;;;;;4968785;28;20054;-85
2022/10/30 06:25:37;;;;;;;31.38;13.02;;;12.90;99.90;;;;;;4966840;28;20027;-84
2022/10/30 06:28:03;;;;;;;37.95;14.05;;;12.90;99.90;;;;;;4968267;28;20039;-79
2022/10/30 06:30:30;;;;;;;31.77;14.02;;;12.90;99.90;;;;;;4983155;28;20121;-77
2022/10/30 06:33:00;;;;;;;25.13;13.23;;;13.00;99.90;;;;;;4984453;28;20046;-81
2022/10/30 06:35:27;;;;;;;28.73;13.10;;;13.00;99.90;;;;;;4958207;28;20090;-79
2022/10/30 06:37:55;;;;;;;26.45;13.82;;;13.00;99.90;;;;;;4973379;28;20053;-81
2022/10/30 06:40:22;;;;;;;25.27;12.88;;;13.00;99.90;;;;;;4958843;28;20031;-79
2022/10/30 06:42:52;;;;;;;26.00;14.10;;;13.00;99.90;;;;;;4974401;28;20058;-82
2022/10/30 06:45:19;;;;;;;29.42;12.27;;;13.00;99.90;;;;;;4984304;28;20050;-80
2022/10/30 06:47:45;;;;;;;32.88;12.35;;;12.90;99.90;;;;;;4965218;28;20031;-79
2022/10/30 06:50:14;;;;;;;27.83;13.05;;;13.00;99.90;;;;;;4964618;28;20031;-80
2022/10/30 06:52:40;;;;;;;32.83;13.13;;;12.90;99.90;;;;;;4977809;28;20407;-79
2022/10/30 06:55:06;;;;;;;32.55;13.35;;;13.00;99.90;;;;;;4983068;28;20121;-80
2022/10/30 06:57:32;;;;;;;26.85;12.90;;;13.00;99.90;;;;;;4967316;28;20031;-79
2022/10/30 06:59:58;;;;;;;26.17;12.55;;;13.00;99.90;;;;;;4968298;28;20030;-80
2022/10/30 07:02:24;;;;;;;27.00;13.40;;;13.00;99.90;;;;;;4981960;28;20029;-80
2022/10/30 07:04:49;;;;;;;28.48;13.32;;;13.00;99.90;;;;;;4977918;28;20054;-79
2022/10/30 07:07:15;;;;;;;31.55;13.13;;;13.00;99.90;;;;;;4983183;28;20141;-78
2022/10/30 07:09:41;;;;;;;24.38;12.65;;;13.00;99.90;;;;;;4957229;28;20067;-80
2022/10/30 07:12:08;;;;;;;34.15;13.35;;;12.90;99.90;;;;;;4971900;28;20571;-80
2022/10/30 07:14:34;;;;;;;27.00;12.73;;;12.90;99.90;;;;;;4950901;29;20056;-81
2022/10/30 07:17:01;;;;;;;23.73;13.30;;;12.90;99.90;;;;;;4974281;28;20039;-79
2022/10/30 07:19:27;;;;;;;31.75;13.18;;;12.90;99.90;;;;;;4954595;28;20022;-80
2022/10/30 07:21:52;;;;;;;39.45;13.82;;;12.90;99.90;;;;;;4967676;28;20049;-82
2022/10/30 07:24:18;;;;;;;29.35;13.35;;;12.90;99.90;;;;;;4985492;28;20083;-79
2022/10/30 07:26:43;;;;;;;28.70;13.02;;;12.90;99.90;;;;;;4977551;28;20023;-80
2022/10/30 07:29:09;;;;;;;36.70;14.23;;;13.00;99.90;;;;;;4963315;28;20159;-80
2022/10/30 07:31:35;;;;;;;36.05;13.88;;;13.00;99.90;;;;;;4983476;28;20030;-78
2022/10/30 07:34:00;;;;;;;33.53;14.88;;;13.10;99.90;;;;;;4983248;28;20027;-79
2022/10/30 07:36:26;;;;;;;28.83;14.70;;;13.20;99.90;;;;;;4981133;28;20121;-80
2022/10/30 08:58:47;;;;;;;30.75;11.73;;;16.50;99.90;;;;;;4308741;26;20051;-79
2022/10/30 09:01:15;;;;;;;30.80;11.50;;;16.60;99.90;;;;;;4974585;28;20037;-79
2022/10/30 09:03:43;;;;;;;27.90;11.45;;;16.60;99.90;;;;;;4971433;28;20058;-78
2022/10/30 09:06:08;;;;;;;23.63;12.30;;;16.60;99.90;;;;;;4977532;28;20027;-78
2022/10/30 09:08:34;;;;;;;29.80;13.05;;;16.60;99.90;;;;;;4974001;28;20503;-79
2022/10/30 09:11:00;;;;;;;28.42;12.95;;;16.70;99.90;;;;;;4976471;28;20027;-78
2022/10/30 09:13:26;;;;;;;29.60;12.85;;;16.70;99.90;;;;;;4959513;28;20135;-73
2022/10/30 09:15:52;;;;;;;34.70;13.88;;;16.70;99.90;;;;;;4976590;28;20066;-80
2022/10/30 09:18:18;;;;;;;34.45;12.98;;;16.70;99.90;;;;;;4976403;28;20053;-78
2022/10/30 09:20:47;;;;;;;27.40;12.52;;;16.80;99.90;;;;;;4976729;28;20038;-79
2022/10/30 09:23:12;;;;;;;34.63;13.27;;;16.80;99.90;;;;;;4975660;28;20178;-80
2022/10/30 09:25:38;;;;;;;33.45;12.77;;;16.90;99.90;;;;;;4974454;28;20063;-78
2022/10/30 09:28:04;;;;;;;27.70;13.13;;;17.00;99.90;;;;;;4975830;28;20035;-77
2022/10/30 09:30:29;;;;;;;34.58;12.90;;;17.00;99.90;;;;;;4976806;28;20047;-79
2022/10/30 09:33:00;;;;;;;37.72;14.95;;;17.10;99.90;;;;;;4958886;28;20074;-78
2022/10/30 09:35:28;;;;;;;33.13;14.02;;;17.20;99.90;;;;;;4977393;28;20058;-80
2022/10/30 09:37:55;;;;;;;35.17;14.40;;;17.30;99.90;;;;;;4977262;28;20105;-78
2022/10/30 09:40:50;;;;;;;27.20;14.48;;;17.30;99.90;;;;;;4974725;28;20050;-80
2022/10/30 09:43:54;;;;;;;35.70;14.73;;;17.40;99.90;;;;;;4929652;28;20054;-80
2022/10/30 09:46:40;;;;;;;28.10;14.27;;;17.50;99.90;;;;;;4965853;28;20057;-80
2022/10/30 09:49:37;;;;;;;54.70;15.63;;;17.70;99.90;;;;;;4987811;28;20022;-78
2022/10/30 09:52:28;;;;;;;28.77;14.18;;;17.70;99.90;;;;;;4976345;28;20142;-79
2022/10/30 09:55:00;;;;;;;33.47;14.60;;;17.70;99.90;;;;;;4960397;28;20693;-79
2022/10/30 09:57:50;;;;;;;38.72;16.05;;;17.80;99.90;;;;;;4967861;28;20047;-79
2022/10/30 10:00:21;;;;;;;35.95;15.50;;;17.80;99.90;;;;;;4953360;29;20034;-79
2022/10/30 10:03:13;;;;;;;29.10;14.73;;;17.90;99.90;;;;;;4951444;29;20048;-75
2022/10/30 10:05:54;;;;;;;38.90;14.88;;;17.90;99.90;;;;;;4956699;29;20039;-76
2022/10/30 10:08:33;;;;;;;31.08;15.30;;;18.00;99.90;;;;;;4956642;29;20098;-74
2022/10/30 10:11:02;;;;;;;42.65;15.68;;;18.00;99.90;;;;;;4952608;29;20032;-79
2022/10/30 10:13:37;;;;;;;46.00;15.75;;;18.20;99.90;;;;;;4949332;29;20039;-82
2022/10/30 10:16:19;;;;;;;36.65;14.45;;;18.30;99.90;;;;;;4954946;29;20098;-77
2022/10/30 10:19:21;;;;;;;34.03;14.13;;;18.40;99.90;;;;;;4956356;29;20043;-79
2022/10/30 10:21:56;;;;;;;40.47;15.35;;;18.50;99.90;;;;;;4926239;29;20079;-80
2022/10/30 10:24:25;;;;;;;28.63;14.23;;;18.60;99.90;;;;;;4956033;29;20074;-79
2022/10/30 10:27:12;;;;;;;37.63;14.90;;;18.70;99.90;;;;;;4938754;29;20044;-79
2022/10/30 10:30:03;;;;;;;32.22;14.27;;;18.80;99.90;;;;;;4951187;29;20055;-78
2022/10/30 10:32:50;;;;;;;35.80;15.15;;;18.80;99.90;;;;;;4951779;29;20039;-77
2022/10/30 10:35:41;;;;;;;40.60;15.15;;;19.00;99.90;;;;;;4954341;29;20046;-77
2022/10/30 10:38:25;;;;;;;32.28;14.93;;;19.10;99.90;;;;;;4954986;29;20043;-77
2022/10/30 10:41:04;;;;;;;36.67;15.38;;;19.20;99.90;;;;;;4954550;29;20023;-77
2022/10/30 10:43:57;;;;;;;37.90;14.70;;;19.40;99.90;;;;;;4954648;29;20115;-77
2022/10/30 10:46:48;;;;;;;30.85;14.77;;;19.50;99.90;;;;;;4954555;29;20023;-75
2022/10/30 10:49:29;;;;;;;36.95;14.73;;;19.50;99.90;;;;;;4955536;29;20086;-77
2022/10/30 10:52:01;;;;;;;31.23;13.25;;;19.50;99.90;;;;;;4955224;29;20116;-79
2022/10/30 10:54:37;;;;;;;40.20;15.20;;;19.60;99.90;;;;;;4955347;29;20036;-78
2022/10/30 10:57:06;;;;;;;39.65;14.38;;;19.60;99.90;;;;;;4954161;28;20788;-76
2022/10/30 10:59:41;;;;;;;32.65;13.82;;;19.60;99.90;;;;;;4958920;28;20027;-77
2022/10/30 11:02:28;;;;;;;36.92;14.82;;;19.70;99.90;;;;;;4975807;28;20027;-79
2022/10/30 11:05:01;;;;;;;38.80;14.60;;;19.70;99.90;;;;;;4986993;28;20043;-79
2022/10/30 11:07:32;;;;;;;30.02;14.35;;;19.80;99.90;;;;;;4974909;28;20019;-74
2022/10/30 11:09:58;;;;;;;33.58;15.02;;;19.90;99.90;;;;;;4975252;28;20034;-76
2022/10/30 11:12:30;;;;;;;33.80;14.52;;;20.00;99.90;;;;;;4972350;28;20050;-79
2022/10/30 11:14:58;;;;;;;45.42;14.38;;;20.10;99.90;;;;;;4973931;28;20027;-80
2022/10/30 11:17:34;;;;;;;26.75;13.32;;;20.20;99.90;;;;;;4973330;28;20055;-78
2022/10/30 11:20:17;;;;;;;33.38;14.85;;;20.30;99.90;;;;;;4974454;28;20031;-75
2022/10/30 11:22:48;;;;;;;32.35;14.10;;;20.40;99.90;;;;;;4972312;28;20046;-79
2022/10/30 11:25:19;;;;;;;32.10;13.75;;;20.50;99.90;;;;;;4974254;28;20034;-78
2022/10/30 11:27:48;;;;;;;37.22;13.55;;;20.70;99.90;;;;;;4974750;28;20130;-79
2022/10/30 11:30:19;;;;;;;41.90;13.85;;;21.20;99.90;;;;;;4973064;28;20030;-78
2022/10/30 11:32:45;;;;;;;36.25;13.52;;;21.70;99.90;;;;;;4974610;28;20064;-74
2022/10/30 11:35:18;;;;;;;33.95;12.77;;;22.00;99.90;;;;;;4973818;28;20569;-77
2022/10/30 11:37:46;;;;;;;28.45;12.90;;;22.20;99.90;;;;;;4972221;28;20019;-78
2022/10/30 11:40:12;;;;;;;35.88;12.32;;;22.50;99.90;;;;;;4970597;28;20038;-79
2022/10/30 11:42:40;;;;;;;27.80;12.30;;;22.80;99.90;;;;;;4974801;28;20113;-81
2022/10/30 11:45:16;;;;;;;35.08;13.10;;;23.10;99.90;;;;;;4973268;28;20122;-79
2022/10/30 11:47:42;;;;;;;24.85;10.73;;;23.40;99.90;;;;;;4973765;28;20137;-78
2022/10/30 11:50:21;;;;;;;24.65;10.82;;;23.60;99.90;;;;;;4970761;28;20051;-77
2022/10/30 11:52:53;;;;;;;30.92;11.80;;;23.80;99.90;;;;;;4973066;28;20034;-79
2022/10/30 11:55:34;;;;;;;29.05;11.43;;;23.80;99.90;;;;;;4972099;28;20042;-76
2022/10/30 11:58:00;;;;;;;20.70;10.13;;;23.90;99.90;;;;;;4973560;28;20074;-78
2022/10/30 12:00:33;;;;;;;35.38;11.07;;;23.80;99.90;;;;;;4970134;28;20058;-78
2022/10/30 12:02:59;;;;;;;26.55;10.85;;;23.70;99.90;;;;;;4971864;28;20022;-80
2022/10/30 12:05:40;;;;;;;35.92;10.55;;;23.60;99.90;;;;;;4968863;28;20454;-80
2022/10/30 12:08:06;;;;;;;30.33;10.65;;;23.50;99.90;;;;;;4956410;28;20035;-77
2022/10/30 12:10:38;;;;;;;36.80;11.45;;;23.40;99.90;;;;;;4972093;28;20047;-80
2022/10/30 12:13:04;;;;;;;30.42;12.05;;;23.20;99.90;;;;;;4972844;28;20107;-78
2022/10/30 12:15:36;;;;;;;25.17;9.95;;;23.10;99.90;;;;;;4972694;28;20026;-80
2022/10/30 12:18:06;;;;;;;22.38;10.13;;;23.00;99.90;;;;;;4973466;28;20023;-79
2022/10/30 12:20:35;;;;;;;35.80;10.77;;;22.90;99.90;;;;;;4968497;28;20037;-79
2022/10/30 12:23:15;;;;;;;25.33;10.25;;;22.80;99.90;;;;;;4987000;28;20106;-79
2022/10/30 12:25:46;;;;;;;34.03;11.00;;;22.80;99.90;;;;;;4972154;28;20612;-80
2022/10/30 12:28:17;;;;;;;26.83;10.05;;;22.90;99.90;;;;;;4971089;28;20090;-79
2022/10/30 12:31:09;;;;;;;26.27;9.57;;;23.00;99.90;;;;;;4973586;28;20106;-80
2022/10/30 12:34:09;;;;;;;32.28;10.32;;;23.10;99.90;;;;;;4970291;28;20047;-81
2022/10/30 12:36:58;;;;;;;23.45;10.32;;;23.20;99.90;;;;;;4971136;28;20229;-80
2022/10/30 12:39:43;;;;;;;25.08;11.27;;;23.30;99.90;;;;;;4973499;28;20058;-81
2022/10/30 12:42:17;;;;;;;26.35;10.68;;;23.40;99.90;;;;;;4970787;28;20078;-78
2022/10/30 12:44:51;;;;;;;24.83;10.90;;;23.30;99.90;;;;;;4968432;28;20022;-80
2022/10/30 12:47:39;;;;;;;31.60;10.88;;;23.30;99.90;;;;;;4970896;28;20066;-79
2022/10/30 12:50:32;;;;;;;28.25;11.30;;;23.30;99.90;;;;;;4975206;28;20488;-79
2022/10/30 12:53:17;;;;;;;29.15;12.20;;;23.40;99.90;;;;;;4957659;28;20044;-80
2022/10/30 12:55:52;;;;;;;24.30;10.73;;;23.50;99.90;;;;;;4973692;28;20062;-78
2022/10/30 12:58:21;;;;;;;29.13;10.55;;;23.60;99.90;;;;;;4971734;28;20057;-76
2022/10/30 13:01:17;;;;;;;36.53;11.30;;;23.60;99.90;;;;;;4972654;28;20110;-79
2022/10/30 13:03:46;;;;;;;35.72;10.88;;;23.60;99.90;;;;;;4972770;28;20070;-78
2022/10/30 13:06:19;;;;;;;43.00;11.65;;;23.70;99.90;;;;;;4974185;28;20035;-76
2022/10/30 13:09:17;;;;;;;28.67;11.27;;;23.70;99.90;;;;;;4973832;28;20026;-79
2022/10/30 13:12:06;;;;;;;39.88;12.05;;;23.70;99.90;;;;;;4971589;28;20061;-78
2022/10/30 13:14:39;;;;;;;29.58;11.27;;;23.50;99.90;;;;;;4971146;28;20031;-79
2022/10/30 13:17:12;;;;;;;33.40;11.98;;;23.50;99.90;;;;;;4970856;28;21245;-79
2022/10/30 13:19:40;;;;;;;30.35;9.93;;;23.40;99.90;;;;;;4970528;28;20061;-79
2022/10/30 13:22:37;;;;;;;30.75;10.50;;;23.40;99.90;;;;;;4972189;28;20028;-80
2022/10/30 13:25:31;;;;;;;25.00;9.18;;;23.40;99.90;;;;;;4955067;28;20028;-80
2022/10/30 13:28:24;;;;;;;22.73;9.00;;;23.60;99.90;;;;;;4987446;28;20028;-80
2022/10/30 13:31:07;;;;;;;23.77;9.07;;;23.70;99.90;;;;;;4976799;28;20060;-79
2022/10/30 13:33:59;;;;;;;24.55;9.38;;;23.90;99.90;;;;;;4975949;28;20062;-77
2022/10/30 13:36:26;;;;;;;23.73;9.27;;;24.10;99.90;;;;;;4975083;28;20027;-81
2022/10/30 13:39:12;;;;;;;22.80;8.52;;;24.20;99.90;;;;;;4975666;28;20110;-81
2022/10/30 13:41:38;;;;;;;18.95;9.07;;;24.40;99.90;;;;;;4975532;28;20119;-79
2022/10/30 13:44:17;;;;;;;21.38;8.48;;;24.60;99.90;;;;;;4973482;28;20035;-79
2022/10/30 13:47:23;;;;;;;21.73;8.40;;;24.70;99.90;;;;;;4976095;28;20027;-80
2022/10/30 13:50:11;;;;;;;25.30;8.75;;;24.60;99.90;;;;;;4974660;28;20700;-79
2022/10/30 13:52:39;;;;;;;26.55;9.20;;;24.50;99.90;;;;;;4975221;28;20039;-80
2022/10/30 13:55:31;;;;;;;19.45;8.90;;;24.30;99.90;;;;;;4974715;28;20027;-79
2022/10/30 13:58:17;;;;;;;29.08;8.90;;;24.20;99.90;;;;;;4974655;28;20055;-80
2022/10/30 14:00:54;;;;;;;29.73;9.05;;;24.10;99.90;;;;;;4973044;28;20066;-79
2022/10/30 14:03:39;;;;;;;23.08;8.90;;;24.00;99.90;;;;;;4973879;28;20034;-79
2022/10/30 14:06:33;;;;;;;28.98;9.68;;;23.90;99.90;;;;;;4975509;28;20094;-78
2022/10/30 14:09:19;;;;;;;23.88;9.10;;;23.80;99.90;;;;;;4950257;28;20118;-79